Time;durP1;ratioP1;P1;durP2;ratioP2;P2;SDS_P1;SDS_P2;PMS_P1;PMS_P2;Temp;Humidity;BMP_temperature;BMP_pressure;BME280_temperature;BME280_humidity;BME280_pressure;Samples;Min_cycle;Max_cycle;Signal;HPM_P1;HPM_P2
2021/12/18 00:00:58;;;;;;;1.52;0.82;;;;;;;14.36;34.95;97739.16;5035429;28;20064;-29
2021/12/18 00:03:23;;;;;;;0.68;0.57;;;;;;;14.44;35.22;97739.06;5035160;28;20021;-29
2021/12/18 00:05:49;;;;;;;1.45;0.82;;;;;;;14.48;34.92;97726.88;5034814;28;20033;-29
2021/12/18 00:08:15;;;;;;;1.33;0.80;;;;;;;14.47;35.09;97728.06;5034042;28;20087;-29
2021/12/18 00:10:41;;;;;;;1.52;0.75;;;;;;;14.51;34.71;97731.50;5035448;28;20068;-29
2021/12/18 00:13:06;;;;;;;1.95;0.88;;;;;;;14.45;35.00;97725.00;5034574;28;20040;-29
2021/12/18 00:15:32;;;;;;;0.88;0.57;;;;;;;14.45;34.91;97721.50;5034784;28;20029;-29
2021/12/18 00:17:57;;;;;;;1.33;0.80;;;;;;;14.45;34.97;97714.09;5034652;28;20356;-29
2021/12/18 00:20:25;;;;;;;0.88;0.80;;;;;;;14.46;35.02;97712.91;5034925;28;20048;-29
2021/12/18 00:22:51;;;;;;;1.15;0.70;;;;;;;14.46;34.78;97699.25;5035185;28;20035;-29
2021/12/18 00:25:18;;;;;;;1.45;0.65;;;;;;;14.47;34.61;97706.22;5034940;28;20030;-29
2021/12/18 00:27:44;;;;;;;1.38;0.73;;;;;;;14.43;34.94;97712.97;5034491;28;20112;-29
2021/12/18 00:30:10;;;;;;;0.73;0.60;;;;;;;14.46;34.66;97712.13;5035068;28;20435;-29
2021/12/18 00:32:35;;;;;;;1.40;0.70;;;;;;;14.49;34.73;97712.03;5033870;28;20047;-29
2021/12/18 00:35:01;;;;;;;1.02;0.60;;;;;;;14.45;34.60;97710.59;5034306;28;20029;-29
2021/12/18 00:37:26;;;;;;;0.77;0.68;;;;;;;14.46;34.82;97732.00;5034776;28;20025;-29
2021/12/18 00:39:56;;;;;;;1.00;0.57;;;;;;;14.41;34.53;97728.97;5034741;28;20029;-29
2021/12/18 00:44:50;;;;;;;1.20;0.80;;;;;;;14.44;34.67;97731.66;5034772;28;20468;-29
2021/12/18 00:47:15;;;;;;;1.58;0.60;;;;;;;14.45;34.88;97730.47;5034686;28;20028;-29
2021/12/18 00:49:41;;;;;;;1.27;0.65;;;;;;;14.41;34.88;97735.22;5034917;28;20026;-29
2021/12/18 00:52:07;;;;;;;0.90;0.50;;;;;;;14.43;34.76;97738.28;5034645;28;20068;-29
2021/12/18 00:54:34;;;;;;;1.05;0.60;;;;;;;14.43;34.32;97741.03;5033088;28;20041;-29
2021/12/18 00:57:00;;;;;;;1.80;0.60;;;;;;;14.40;34.32;97732.91;5033851;28;20029;-29
2021/12/18 00:59:26;;;;;;;0.85;0.60;;;;;;;14.41;34.71;97739.91;5034260;28;20476;-29
2021/12/18 01:01:52;;;;;;;0.68;0.50;;;;;;;14.39;34.22;97740.28;5034524;28;20025;-29
2021/12/18 01:04:18;;;;;;;0.90;0.60;;;;;;;14.47;34.55;97749.13;5034555;28;20029;-29
2021/12/18 01:06:43;;;;;;;1.25;0.70;;;;;;;14.43;34.39;97751.16;5033562;28;20030;-29
2021/12/18 01:09:09;;;;;;;1.00;0.60;;;;;;;14.38;34.42;97752.38;5033620;28;20510;-29
2021/12/18 01:11:41;;;;;;;1.60;0.60;;;;;;;14.38;34.68;97753.16;5034225;28;20071;-29
2021/12/18 01:14:41;;;;;;;0.77;0.57;;;;;;;14.40;34.29;97758.22;5033914;28;20029;-29
2021/12/18 01:25:01;;;;;;;0.93;0.50;;;;;;;14.41;34.35;97745.34;5034400;28;20044;-29
2021/12/18 01:27:27;;;;;;;0.65;0.50;;;;;;;14.39;34.10;97737.56;5033994;28;20472;-29
2021/12/18 01:29:53;;;;;;;1.63;0.70;;;;;;;14.41;34.17;97746.13;5032314;28;20022;-29
2021/12/18 01:32:18;;;;;;;1.00;0.60;;;;;;;14.46;34.13;97745.66;5033188;28;20504;-29
2021/12/18 01:34:45;;;;;;;0.93;0.50;;;;;;;14.50;34.26;97751.03;5033877;28;20034;-29
2021/12/18 01:37:11;;;;;;;0.98;0.50;;;;;;;14.35;34.28;97743.06;5033509;28;20056;-29
2021/12/18 01:39:37;;;;;;;0.50;0.40;;;;;;;14.48;33.83;97751.44;5031974;28;20053;-29
2021/12/18 01:42:57;;;;;;;0.73;0.43;;;;;;;14.45;33.89;97751.53;5033559;28;20029;-29
2021/12/18 01:45:05;;;;;;;1.15;0.70;;;;;;;14.45;34.05;97751.53;5032755;28;20033;-29
2021/12/18 01:52:53;;;;;;;0.93;0.60;;;;;;;14.42;34.03;97746.91;5033666;28;20058;-29
2021/12/18 01:55:26;;;;;;;0.88;0.50;;;;;;;14.44;33.93;97742.56;5033010;28;20055;-29
2021/12/18 01:57:52;;;;;;;0.75;0.52;;;;;;;14.43;33.60;97740.25;5033639;28;20082;-29
2021/12/18 02:00:22;;;;;;;0.75;0.40;;;;;;;14.41;33.68;97742.63;5032027;28;20049;-29
2021/12/18 02:02:47;;;;;;;0.65;0.45;;;;;;;14.39;33.62;97737.56;5033111;28;20025;-29
2021/12/18 02:05:13;;;;;;;1.30;0.50;;;;;;;14.34;33.91;97736.06;5033204;28;20013;-29
2021/12/18 02:07:40;;;;;;;0.75;0.50;;;;;;;14.37;33.65;97735.25;5033166;28;20411;-29
2021/12/18 02:10:10;;;;;;;1.00;0.60;;;;;;;14.40;33.55;97730.16;5033361;28;20025;-29
2021/12/18 02:12:47;;;;;;;1.30;0.52;;;;;;;14.42;33.85;97728.56;5033013;28;20025;-29
2021/12/18 02:20:50;;;;;;;1.92;0.60;;;;;;;14.42;33.80;97730.53;5032742;28;20032;-29
2021/12/18 02:23:17;;;;;;;1.10;0.73;;;;;;;14.43;33.59;97721.91;5033076;28;20100;-29
2021/12/18 02:25:47;;;;;;;0.73;0.57;;;;;;;14.42;33.35;97725.06;5033000;28;20487;-29
2021/12/18 02:28:20;;;;;;;1.50;0.40;;;;;;;14.41;33.55;97724.28;5032931;28;20029;-29
2021/12/18 02:30:48;;;;;;;0.93;0.50;;;;;;;14.46;33.86;97723.81;5032958;28;20104;-29
2021/12/18 02:33:14;;;;;;;0.80;0.40;;;;;;;14.48;33.40;97726.88;5032738;28;20033;-29
2021/12/18 02:35:47;;;;;;;0.73;0.60;;;;;;;14.46;33.54;97726.53;5033132;28;20032;-29
2021/12/18 02:38:21;;;;;;;1.17;0.60;;;;;;;14.49;33.79;97722.19;5032718;28;20034;-29
2021/12/18 02:43:36;;;;;;;0.60;0.50;;;;;;;14.46;33.25;97718.34;5032370;28;20330;-29
2021/12/18 02:46:07;;;;;;;1.15;0.63;;;;;;;14.44;33.48;97712.53;5032698;28;20029;-29
2021/12/18 02:48:38;;;;;;;0.52;0.40;;;;;;;14.43;33.57;97711.00;5032831;28;20379;-29
2021/12/18 02:51:06;;;;;;;1.10;0.50;;;;;;;14.38;33.37;97711.44;5032582;28;20464;-29
2021/12/18 02:53:33;;;;;;;1.23;0.60;;;;;;;14.44;33.62;97709.81;5032797;28;20025;-29
2021/12/18 02:56:06;;;;;;;0.50;0.38;;;;;;;14.44;33.33;97709.81;5033170;28;20025;-29
2021/12/18 02:58:35;;;;;;;;;;;;;;;14.39;33.57;97707.53;5037138;28;20049;-29
2021/12/18 03:01:00;;;;;;;1.02;0.47;;;;;;;14.43;33.16;97713.72;5036176;28;19924;-29
2021/12/18 03:03:30;;;;;;;0.70;0.40;;;;;;;14.38;33.44;97701.31;5036952;28;20028;-29
2021/12/18 03:06:10;;;;;;;0.52;0.47;;;;;;;14.17;33.34;97707.19;5036380;28;20026;-29
2021/12/18 03:25:18;;;;;;;1.05;0.63;;;;;;;14.40;33.10;97703.63;5013586;28;20427;-29
2021/12/18 03:27:44;;;;;;;0.80;0.50;;;;;;;14.33;32.92;97711.94;5036016;28;20396;-29
2021/12/18 03:30:11;;;;;;;0.50;0.40;;;;;;;14.34;33.06;97716.97;5036094;28;20025;-29
2021/12/18 03:32:36;;;;;;;0.30;0.30;;;;;;;14.36;33.16;97705.63;5035791;28;20104;-29
2021/12/18 03:35:04;;;;;;;1.02;0.60;;;;;;;14.27;33.10;97703.47;5035889;28;20476;-29
2021/12/18 03:37:29;;;;;;;0.73;0.50;;;;;;;14.40;33.10;97706.38;5036134;28;20028;-29
2021/12/18 03:39:55;;;;;;;0.93;0.57;;;;;;;14.32;32.93;97694.81;5035919;28;20029;-29
2021/12/18 03:42:21;;;;;;;0.68;0.50;;;;;;;14.38;33.28;97693.13;5035777;28;20029;-29
2021/12/18 03:44:47;;;;;;;1.80;0.60;;;;;;;14.34;32.76;97691.66;5035901;28;20456;-29
2021/12/18 03:47:13;;;;;;;0.60;0.47;;;;;;;14.02;33.47;97695.75;5034765;28;20025;-29
2021/12/18 03:49:39;;;;;;;1.25;0.60;;;;;;;14.17;33.19;97704.44;5035733;28;20028;-29
2021/12/18 03:52:06;;;;;;;0.82;0.47;;;;;;;14.21;32.87;97701.66;5035780;28;20026;-29
2021/12/18 03:54:32;;;;;;;0.57;0.40;;;;;;;14.25;32.81;97702.34;5035609;28;20028;-29
2021/12/18 03:56:57;;;;;;;0.85;0.50;;;;;;;14.33;32.86;97720.91;5035494;28;20017;-29
2021/12/18 03:59:23;;;;;;;0.65;0.47;;;;;;;14.41;32.71;97721.56;5035296;28;20038;-29
2021/12/18 04:01:48;;;;;;;1.75;0.65;;;;;;;14.38;32.57;97730.56;5035675;28;20854;-29
2021/12/18 04:04:14;;;;;;;1.08;0.50;;;;;;;14.40;32.78;97736.41;5035457;28;20024;-29
2021/12/18 04:06:41;;;;;;;1.52;0.52;;;;;;;14.41;33.06;97743.41;5034877;28;20472;-29
2021/12/18 04:09:07;;;;;;;1.10;0.70;;;;;;;14.27;33.22;97740.91;5033880;28;20033;-29
2021/12/18 04:11:33;;;;;;;0.73;0.50;;;;;;;14.36;32.87;97741.88;5035079;28;20034;-29
2021/12/18 04:13:58;;;;;;;1.80;0.57;;;;;;;14.33;32.96;97742.75;5035385;28;20479;-29
2021/12/18 04:16:24;;;;;;;0.90;0.50;;;;;;;14.37;33.17;97729.78;5035431;28;20019;-29
2021/12/18 04:18:50;;;;;;;0.55;0.43;;;;;;;14.38;33.02;97722.38;5035425;28;20036;-29
2021/12/18 04:21:15;;;;;;;0.80;0.65;;;;;;;14.36;33.53;97725.50;5035374;28;20022;-29
2021/12/18 04:23:41;;;;;;;1.80;0.70;;;;;;;14.42;32.87;97734.03;5035219;28;20399;-29
2021/12/18 04:26:06;;;;;;;0.70;0.55;;;;;;;14.22;33.30;97730.47;5034248;28;20486;-29
2021/12/18 04:28:32;;;;;;;0.70;0.50;;;;;;;14.38;33.07;97727.81;5034966;28;20069;-29
2021/12/18 04:30:57;;;;;;;1.23;0.60;;;;;;;14.31;32.95;97738.88;5033505;28;20067;-29
2021/12/18 04:33:23;;;;;;;0.75;0.52;;;;;;;14.34;32.86;97746.25;5035217;28;20025;-29
2021/12/18 04:35:49;;;;;;;0.52;0.50;;;;;;;14.32;32.97;97745.88;5034884;28;20031;-29
2021/12/18 04:38:15;;;;;;;0.55;0.40;;;;;;;14.30;32.80;97751.75;5033729;28;20027;-29
2021/12/18 04:40:42;;;;;;;0.82;0.52;;;;;;;14.35;32.87;97747.75;5029095;28;20036;-29
2021/12/18 04:43:08;;;;;;;0.90;0.50;;;;;;;14.36;32.93;97754.75;5035179;28;20025;-29
2021/12/18 04:45:33;;;;;;;1.83;0.57;;;;;;;14.37;32.84;97748.88;5035101;28;20082;-29
2021/12/18 04:47:59;;;;;;;0.85;0.50;;;;;;;14.42;32.82;97744.16;5034990;28;20021;-29
2021/12/18 04:50:24;;;;;;;0.60;0.60;;;;;;;14.33;32.79;97747.44;5035114;28;20112;-29
2021/12/18 04:52:51;;;;;;;1.35;0.60;;;;;;;14.31;32.70;97749.81;5034963;28;20025;-29
2021/12/18 04:55:17;;;;;;;2.25;0.85;;;;;;;14.12;33.04;97754.03;5034963;28;20028;-29
2021/12/18 04:57:43;;;;;;;0.80;0.40;;;;;;;14.25;33.19;97756.91;5034835;28;20029;-29
2021/12/18 05:00:13;;;;;;;0.77;0.50;;;;;;;14.21;32.77;97743.38;5034602;28;20054;-29
2021/12/18 05:02:42;;;;;;;0.82;0.52;;;;;;;14.04;33.42;97749.91;5034785;28;20037;-29
2021/12/18 05:05:10;;;;;;;0.98;0.60;;;;;;;14.29;32.81;97766.59;5034740;28;20100;-29
2021/12/18 05:07:36;;;;;;;1.35;0.73;;;;;;;14.32;33.32;97765.00;5034448;28;20132;-29
2021/12/18 05:10:04;;;;;;;3.47;0.70;;;;;;;14.27;32.93;97755.31;5034738;28;20030;-29
2021/12/18 05:12:29;;;;;;;0.82;0.60;;;;;;;14.28;33.04;97758.81;5034453;28;20526;-29
2021/12/18 05:14:55;;;;;;;0.85;0.50;;;;;;;14.28;33.21;97756.84;5034440;28;20025;-29
2021/12/18 05:17:20;;;;;;;0.95;0.50;;;;;;;14.31;33.32;97760.72;5034694;28;20025;-29
2021/12/18 05:19:46;;;;;;;0.88;0.50;;;;;;;14.28;32.91;97769.72;5033857;28;20418;-29
2021/12/18 05:22:11;;;;;;;0.60;0.45;;;;;;;14.31;33.31;97766.19;5034567;28;20113;-29
2021/12/18 05:24:37;;;;;;;0.70;0.65;;;;;;;14.29;33.12;97763.09;5034291;28;20112;-29
2021/12/18 05:27:03;;;;;;;0.60;0.45;;;;;;;14.22;33.42;97768.66;5034317;28;20463;-29
2021/12/18 05:29:28;;;;;;;0.90;0.60;;;;;;;14.25;33.16;97776.03;5034214;28;20071;-29
2021/12/18 05:31:54;;;;;;;0.70;0.55;;;;;;;14.33;33.29;97780.19;5033025;28;20022;-29
2021/12/18 05:34:23;;;;;;;0.93;0.80;;;;;;;14.36;33.31;97771.13;5034130;28;20379;-29
2021/12/18 05:39:24;;;;;;;0.80;0.40;;;;;;;14.29;33.61;97785.69;5033883;28;20026;-29
2021/12/18 05:41:50;;;;;;;0.95;0.68;;;;;;;14.32;33.49;97790.31;5034129;28;20440;-29
2021/12/18 05:44:23;;;;;;;3.42;0.63;;;;;;;14.29;33.78;97791.16;5034116;28;20371;-29
2021/12/18 05:46:48;;;;;;;1.27;0.60;;;;;;;14.25;33.58;97795.88;5034189;28;20026;-29
2021/12/18 05:49:14;;;;;;;0.60;0.60;;;;;;;14.21;34.02;97808.84;5033811;28;20021;-29
2021/12/18 05:51:42;;;;;;;0.80;0.57;;;;;;;14.31;33.70;97809.84;5033861;28;20467;-29
2021/12/18 05:54:08;;;;;;;1.15;0.70;;;;;;;14.29;33.40;97810.25;5033944;28;20455;-29
2021/12/18 05:56:34;;;;;;;0.70;0.60;;;;;;;14.24;34.07;97816.19;5033571;28;20018;-29
2021/12/18 05:59:00;;;;;;;0.95;0.57;;;;;;;14.23;33.84;97820.09;5033569;28;20448;-29
2021/12/18 06:01:26;;;;;;;1.63;0.60;;;;;;;14.25;33.96;97817.72;5033718;28;20029;-29
2021/12/18 06:03:52;;;;;;;0.80;0.70;;;;;;;14.13;34.43;97820.28;5033482;28;20032;-29
2021/12/18 06:06:20;;;;;;;1.13;0.75;;;;;;;14.15;34.23;97823.38;5033545;28;20555;-29
2021/12/18 06:08:46;;;;;;;0.80;0.63;;;;;;;14.11;34.13;97817.97;5033634;28;20029;-29
2021/12/18 06:11:16;;;;;;;0.98;0.75;;;;;;;14.17;34.43;97829.19;5033397;28;20017;-29
2021/12/18 06:13:43;;;;;;;0.88;0.70;;;;;;;14.28;34.12;97821.56;5033670;28;20021;-29
2021/12/18 06:16:09;;;;;;;1.30;0.90;;;;;;;14.23;34.27;97824.78;5033611;28;20032;-29
2021/12/18 06:18:36;;;;;;;1.48;0.70;;;;;;;14.30;34.38;97819.22;5033294;28;20032;-29
2021/12/18 06:21:03;;;;;;;1.20;0.73;;;;;;;14.27;34.41;97826.25;5033506;28;20033;-29
2021/12/18 06:23:29;;;;;;;0.93;0.75;;;;;;;14.28;34.30;97813.41;5032055;28;20083;-29
2021/12/18 06:25:55;;;;;;;1.10;0.70;;;;;;;14.29;34.48;97826.63;5033425;28;20025;-29
2021/12/18 06:28:21;;;;;;;1.00;0.80;;;;;;;14.33;34.35;97818.38;5033253;28;20029;-29
2021/12/18 06:30:46;;;;;;;1.00;0.80;;;;;;;14.33;34.31;97818.38;5033467;28;20032;-29
2021/12/18 06:33:12;;;;;;;1.30;0.85;;;;;;;14.29;34.75;97817.66;5033010;28;20052;-29
2021/12/18 06:35:37;;;;;;;1.10;0.70;;;;;;;14.22;34.71;97824.00;5033404;28;20033;-29
2021/12/18 06:38:03;;;;;;;1.45;0.68;;;;;;;14.21;35.08;97824.44;5033289;28;20083;-29
2021/12/18 06:40:28;;;;;;;1.55;0.90;;;;;;;14.22;34.50;97826.72;5029566;28;20051;-29
2021/12/18 06:42:54;;;;;;;0.98;0.68;;;;;;;14.30;34.33;97825.44;5011346;28;20506;-29
2021/12/18 06:45:19;;;;;;;1.80;0.77;;;;;;;14.29;35.00;97829.34;5030581;28;20025;-29
2021/12/18 06:47:45;;;;;;;1.08;0.70;;;;;;;14.23;34.75;97827.50;5033042;28;20380;-29
2021/12/18 06:50:10;;;;;;;1.52;0.80;;;;;;;14.15;34.88;97850.66;5033099;28;20027;-29
2021/12/18 06:52:36;;;;;;;1.95;1.00;;;;;;;14.20;34.62;97847.47;5032910;28;20526;-29
2021/12/18 06:55:03;;;;;;;1.40;1.08;;;;;;;14.23;34.99;97838.41;5033351;28;20064;-29
2021/12/18 06:57:28;;;;;;;2.10;0.85;;;;;;;14.23;35.22;97838.41;5031783;28;20018;-29
2021/12/18 06:59:54;;;;;;;1.30;0.80;;;;;;;14.27;35.10;97842.63;5032735;28;20385;-29
2021/12/18 07:02:19;;;;;;;2.30;1.00;;;;;;;14.21;35.04;97838.84;5032828;28;20116;-29
2021/12/18 07:04:45;;;;;;;3.22;1.00;;;;;;;14.29;35.11;97853.16;5033029;28;20526;-29
2021/12/18 07:07:11;;;;;;;1.80;0.95;;;;;;;14.14;35.31;97855.34;5032985;28;20028;-29
2021/12/18 07:09:36;;;;;;;1.40;0.90;;;;;;;14.15;35.60;97856.09;5033131;28;20036;-29
2021/12/18 07:12:02;;;;;;;1.40;0.80;;;;;;;14.11;35.52;97879.94;5033067;28;20404;-29
2021/12/18 07:14:28;;;;;;;1.88;1.20;;;;;;;14.18;35.70;97874.38;5033155;28;20021;-29
2021/12/18 07:16:53;;;;;;;1.45;0.80;;;;;;;14.20;35.30;97889.16;5033088;28;20483;-29
2021/12/18 07:19:19;;;;;;;2.33;0.93;;;;;;;14.21;35.44;97887.19;5032649;28;20025;-29
2021/12/18 07:21:44;;;;;;;1.40;0.98;;;;;;;14.12;35.66;97895.13;5032835;28;20021;-29
2021/12/18 07:24:10;;;;;;;2.17;1.10;;;;;;;14.09;36.04;97904.16;5032780;28;20125;-29
2021/12/18 07:26:35;;;;;;;1.75;1.08;;;;;;;14.18;35.41;97904.41;5032820;28;20844;-29
2021/12/18 07:29:01;;;;;;;2.03;0.85;;;;;;;14.11;36.07;97904.50;5031934;28;20033;-29
2021/12/18 07:31:28;;;;;;;1.67;1.05;;;;;;;14.04;36.12;97919.03;5031617;28;20372;-29
2021/12/18 07:33:53;;;;;;;2.38;0.90;;;;;;;14.21;35.92;97906.31;5032725;28;20040;-29
2021/12/18 07:36:19;;;;;;;2.65;1.00;;;;;;;14.22;35.73;97908.59;5032736;28;20021;-29
2021/12/18 07:38:45;;;;;;;1.25;0.88;;;;;;;14.26;35.98;97905.81;5032891;28;20096;-29
2021/12/18 07:41:11;;;;;;;2.08;0.90;;;;;;;14.29;35.86;97902.25;5032742;28;20021;-29
2021/12/18 07:43:37;;;;;;;2.13;1.27;;;;;;;14.00;36.06;97910.09;5035532;28;20104;-29
2021/12/18 07:46:03;;;;;;;2.42;0.80;;;;;;;14.18;36.08;97916.09;5036229;28;20028;-29
2021/12/18 07:48:29;;;;;;;1.88;1.08;;;;;;;14.15;36.02;97918.84;5036946;28;20030;-29
2021/12/18 07:50:54;;;;;;;1.88;0.80;;;;;;;14.17;36.48;97911.03;5036272;28;20045;-29
2021/12/18 07:53:21;;;;;;;1.38;0.80;;;;;;;14.03;36.19;97918.25;5036226;28;20492;-29
2021/12/18 07:55:47;;;;;;;3.35;1.52;;;;;;;14.19;35.96;97916.84;5035056;28;20407;-29
2021/12/18 07:58:12;;;;;;;1.85;1.30;;;;;;;14.24;36.58;97930.00;5036092;28;20024;-29
2021/12/18 08:00:38;;;;;;;2.60;0.98;;;;;;;14.26;35.79;97927.66;5035454;28;20049;-29
2021/12/18 08:03:04;;;;;;;1.80;1.08;;;;;;;14.25;35.98;97915.97;5014401;28;20034;-29
2021/12/18 08:05:30;;;;;;;4.03;1.00;;;;;;;14.17;36.03;97922.72;5014326;28;20076;-29
2021/12/18 08:07:55;;;;;;;2.47;1.20;;;;;;;14.17;36.05;97902.84;5014210;28;20038;-29
2021/12/18 08:10:20;;;;;;;1.80;1.13;;;;;;;14.21;36.21;97917.22;5014254;28;20030;-29
2021/12/18 08:12:46;;;;;;;1.90;1.08;;;;;;;14.16;35.91;97917.66;5013710;28;20030;-29
2021/12/18 08:15:11;;;;;;;3.53;1.20;;;;;;;13.98;36.44;97924.16;5012021;28;20104;-29
2021/12/18 08:17:37;;;;;;;3.00;1.30;;;;;;;14.10;36.45;97925.53;5013972;28;20018;-29
2021/12/18 08:20:05;;;;;;;1.90;1.50;;;;;;;14.16;36.32;97923.13;5031080;28;20025;-29
2021/12/18 08:22:30;;;;;;;2.33;1.38;;;;;;;14.20;36.04;97930.09;5032094;28;20032;-29
2021/12/18 08:24:55;;;;;;;2.05;1.20;;;;;;;14.26;35.92;97935.81;5033488;28;20037;-29
2021/12/18 08:27:21;;;;;;;1.92;1.25;;;;;;;14.23;36.24;97931.19;5033713;28;20033;-29
2021/12/18 08:29:47;;;;;;;1.67;1.20;;;;;;;14.28;36.05;97941.66;5033686;28;20056;-29
2021/12/18 08:32:12;;;;;;;3.35;1.40;;;;;;;14.15;36.45;97937.94;5033370;28;20108;-29
2021/12/18 08:34:38;;;;;;;1.92;1.42;;;;;;;14.25;36.02;97942.47;5033481;28;20029;-29
2021/12/18 08:37:03;;;;;;;3.05;1.40;;;;;;;14.32;36.02;97940.41;5032764;28;20088;-29
2021/12/18 08:39:29;;;;;;;2.17;1.42;;;;;;;14.24;36.42;97949.88;5033416;28;20040;-29
2021/12/18 08:41:58;;;;;;;2.85;1.17;;;;;;;14.17;36.08;97951.97;5033397;28;20026;-29
2021/12/18 08:44:23;;;;;;;2.15;1.40;;;;;;;14.25;36.04;97962.34;5033514;28;20033;-29
2021/12/18 08:46:49;;;;;;;4.45;1.30;;;;;;;14.22;36.06;97959.66;5033140;28;20539;-29
2021/12/18 08:49:15;;;;;;;3.75;1.33;;;;;;;14.24;36.18;97968.22;5033057;28;20472;-29
2021/12/18 08:51:41;;;;;;;5.88;1.40;;;;;;;14.29;36.30;97970.47;5033154;28;20468;-29
2021/12/18 08:54:06;;;;;;;1.77;1.50;;;;;;;14.30;36.21;97972.81;5031833;28;20049;-29
2021/12/18 08:56:32;;;;;;;2.00;1.25;;;;;;;14.34;36.17;97970.03;5033281;28;20049;-29
2021/12/18 08:59:00;;;;;;;2.45;1.20;;;;;;;14.34;35.88;97972.75;5032870;28;20487;-29
2021/12/18 09:01:29;;;;;;;1.50;1.20;;;;;;;14.39;35.93;97972.28;5032410;28;20036;-30
2021/12/18 09:03:56;;;;;;;2.55;1.35;;;;;;;14.29;36.27;97975.94;5032501;28;20028;-30
2021/12/18 09:06:21;;;;;;;2.17;1.35;;;;;;;14.21;36.45;97971.78;5032779;28;20666;-29
2021/12/18 09:08:47;;;;;;;1.75;1.17;;;;;;;14.22;36.23;97993.19;5033283;28;20029;-29
2021/12/18 09:11:13;;;;;;;3.30;2.38;;;;;;;13.91;37.00;97984.28;5032843;28;20096;-29
2021/12/18 09:13:39;;;;;;;3.60;1.60;;;;;;;14.00;36.97;97984.53;5032492;28;20029;-29
2021/12/18 09:16:06;;;;;;;2.35;1.60;;;;;;;14.05;36.81;97990.72;5031012;28;20029;-29
2021/12/18 09:18:31;;;;;;;2.45;2.03;;;;;;;14.25;36.32;97988.84;5031304;28;20038;-29
2021/12/18 09:20:57;;;;;;;2.90;2.00;;;;;;;14.17;36.70;97992.88;5032575;28;20037;-29
2021/12/18 09:23:23;;;;;;;2.72;1.88;;;;;;;14.25;36.29;97986.91;5032730;28;20100;-29
2021/12/18 09:25:49;;;;;;;2.30;1.80;;;;;;;14.15;36.36;97990.56;5032183;28;20032;-29
2021/12/18 09:28:14;;;;;;;2.88;1.90;;;;;;;14.24;36.31;97985.34;5031870;28;20399;-29
2021/12/18 09:30:41;;;;;;;4.80;1.80;;;;;;;14.29;36.23;97992.31;5032585;28;20025;-29
2021/12/18 09:33:12;;;;;;;2.72;1.75;;;;;;;14.20;36.56;97990.13;5032516;28;20029;-29
2021/12/18 09:35:38;;;;;;;3.58;2.05;;;;;;;14.14;36.63;97994.47;5032689;28;20029;-29
2021/12/18 09:38:03;;;;;;;3.22;2.20;;;;;;;13.79;37.10;97987.56;5032063;28;20360;-29
2021/12/18 09:40:29;;;;;;;4.15;2.03;;;;;;;14.19;36.40;97982.34;5032366;28;20033;-29
2021/12/18 09:42:55;;;;;;;3.95;1.92;;;;;;;13.78;36.81;97983.28;5032159;28;20021;-29
2021/12/18 09:45:22;;;;;;;4.15;2.10;;;;;;;13.75;36.48;97973.19;5032228;28;20029;-29
2021/12/18 09:47:47;;;;;;;3.50;1.80;;;;;;;13.95;36.77;97965.91;5032035;28;20076;-29
2021/12/18 09:50:15;;;;;;;3.80;2.20;;;;;;;14.02;36.57;97974.00;5031901;28;20021;-29
2021/12/18 09:52:40;;;;;;;2.92;2.00;;;;;;;13.85;36.31;97969.53;5032002;28;20178;-29
2021/12/18 09:55:07;;;;;;;2.92;1.75;;;;;;;13.93;36.02;97971.00;5032069;28;20068;-29
2021/12/18 09:57:35;;;;;;;3.17;1.75;;;;;;;13.75;36.99;97975.91;5032130;28;20033;-29
2021/12/18 10:00:03;;;;;;;4.18;2.03;;;;;;;14.04;36.29;97962.66;5032042;28;20300;-29
2021/12/18 10:02:29;;;;;;;3.85;1.92;;;;;;;13.59;35.15;97956.66;5031744;28;20498;-29
2021/12/18 10:04:54;;;;;;;2.65;1.63;;;;;;;13.58;36.79;97955.13;5031516;28;20053;-29
2021/12/18 10:07:23;;;;;;;4.03;1.70;;;;;;;13.41;37.10;97961.56;5031892;28;20510;-29
2021/12/18 10:09:57;;;;;;;3.28;1.67;;;;;;;13.50;36.28;97953.66;5031674;28;20040;-29
2021/12/18 10:12:25;;;;;;;2.55;1.48;;;;;;;13.58;36.81;97949.66;5021743;28;20041;-29
2021/12/18 10:14:54;;;;;;;4.60;1.75;;;;;;;13.98;35.29;97956.13;5009919;28;20026;-29
2021/12/18 10:17:27;;;;;;;2.20;1.38;;;;;;;13.86;33.88;97971.09;5021693;28;20353;-29
2021/12/18 10:20:13;;;;;;;4.93;1.60;;;;;;;13.33;35.75;97960.88;5017856;28;20065;-29
2021/12/18 10:22:45;;;;;;;5.32;2.05;;;;;;;13.21;35.98;97951.28;5011887;28;20053;-29
2021/12/18 10:25:10;;;;;;;4.63;1.88;;;;;;;13.81;35.80;97959.88;5010343;28;20113;-29
2021/12/18 10:27:37;;;;;;;2.45;1.50;;;;;;;13.88;35.55;97955.09;5011747;28;20109;-29
2021/12/18 10:30:16;;;;;;;3.60;2.42;;;;;;;13.62;35.53;97978.41;5011899;28;20060;-29
2021/12/18 10:33:05;;;;;;;4.43;1.50;;;;;;;13.45;34.77;97982.16;5043338;28;20084;-29
2021/12/18 10:35:36;;;;;;;4.85;2.08;;;;;;;13.97;35.40;97982.63;5011475;28;20045;-29
2021/12/18 10:38:02;;;;;;;3.67;1.95;;;;;;;13.46;35.75;97988.38;5017883;28;20036;-29
2021/12/18 10:40:39;;;;;;;5.43;2.15;;;;;;;13.61;35.18;97985.03;5031364;28;20029;-29
2021/12/18 10:43:05;;;;;;;4.05;1.88;;;;;;;13.56;35.25;97979.28;5031188;28;20033;-29
2021/12/18 10:45:34;;;;;;;3.13;1.70;;;;;;;13.44;36.14;97979.81;5031241;28;20045;-29
2021/12/18 10:48:14;;;;;;;4.25;1.80;;;;;;;13.74;35.90;97974.38;5031242;28;20040;-29
2021/12/18 10:50:41;;;;;;;5.65;2.33;;;;;;;13.75;35.09;97959.56;5031185;28;20040;-29
2021/12/18 10:53:11;;;;;;;3.58;1.98;;;;;;;13.46;36.57;97964.63;5025025;28;20484;-29
2021/12/18 10:55:39;;;;;;;6.20;2.35;;;;;;;13.48;36.05;97962.22;5013555;28;20081;-29
2021/12/18 10:58:09;;;;;;;4.35;1.85;;;;;;;13.48;36.12;97966.91;5013363;28;20022;-29
2021/12/18 11:00:49;;;;;;;9.02;2.10;;;;;;;13.05;36.19;97961.16;5013311;28;20046;-29
2021/12/18 11:03:43;;;;;;;2.50;1.67;;;;;;;13.11;35.79;97964.97;5013522;28;20022;-29
2021/12/18 11:06:22;;;;;;;6.50;1.90;;;;;;;13.52;35.46;97945.84;5012871;28;20042;-29
2021/12/18 11:09:05;;;;;;;5.97;2.08;;;;;;;13.55;35.61;97939.56;5013514;28;20054;-29
2021/12/18 11:14:24;;;;;;;4.20;1.88;;;;;;;13.91;35.36;97942.59;5013401;28;20034;-29
2021/12/18 11:16:52;;;;;;;4.00;1.73;;;;;;;13.44;36.07;97942.44;5045222;28;20029;-29
2021/12/18 11:19:20;;;;;;;2.95;1.73;;;;;;;13.82;35.43;97931.44;5017144;28;20033;-29
2021/12/18 11:22:09;;;;;;;4.10;1.88;;;;;;;13.58;35.60;97911.50;5017111;28;20441;-29
2021/12/18 11:24:55;;;;;;;4.25;1.77;;;;;;;13.68;35.68;97920.72;5017065;28;20112;-29
2021/12/18 11:27:21;;;;;;;3.20;1.40;;;;;;;13.72;35.48;97922.22;5016945;28;20036;-29
2021/12/18 11:29:56;;;;;;;3.58;1.60;;;;;;;13.74;35.75;97914.38;5016839;28;20021;-29
2021/12/18 11:32:25;;;;;;;2.53;1.65;;;;;;;13.45;35.83;97919.47;5016949;28;20021;-29
2021/12/18 11:34:54;;;;;;;2.65;1.60;;;;;;;13.61;35.05;97916.13;5017074;28;20100;-29
2021/12/18 11:37:20;;;;;;;3.00;1.70;;;;;;;13.91;35.44;97915.31;5016798;28;20101;-29
2021/12/18 11:39:48;;;;;;;3.58;1.70;;;;;;;13.84;35.93;97918.94;5016542;28;20033;-29
2021/12/18 11:42:15;;;;;;;5.90;2.20;;;;;;;13.90;35.23;97919.22;5016836;28;20392;-29
2021/12/18 11:44:52;;;;;;;3.58;1.90;;;;;;;13.75;35.05;97926.06;5016771;28;20034;-29
2021/12/18 11:47:30;;;;;;;3.15;1.60;;;;;;;14.14;35.17;97929.00;5016517;28;20022;-29
2021/12/18 11:50:03;;;;;;;2.58;1.42;;;;;;;14.36;35.00;97915.78;5017050;28;20030;-29
2021/12/18 11:52:49;;;;;;;4.68;1.98;;;;;;;14.41;34.60;97918.06;5016453;28;20032;-29
2021/12/18 11:55:15;;;;;;;2.85;1.63;;;;;;;14.40;35.30;97922.00;5016333;28;20495;-29
2021/12/18 11:57:48;;;;;;;3.13;1.73;;;;;;;14.15;35.30;97927.81;5015059;28;20030;-29
2021/12/18 12:00:23;;;;;;;3.03;2.35;;;;;;;14.17;34.62;97939.09;5015999;28;20042;-29
2021/12/18 12:02:53;;;;;;;3.10;1.52;;;;;;;14.27;35.21;97931.91;5016281;28;20030;-29
2021/12/18 12:05:31;;;;;;;3.45;1.70;;;;;;;14.54;35.02;97940.88;5016441;28;20457;-29
2021/12/18 12:08:38;;;;;;;3.50;1.60;;;;;;;14.49;35.21;97940.56;5016181;28;20156;-29
2021/12/18 12:11:15;;;;;;;3.45;1.80;;;;;;;14.35;35.46;97931.38;5016830;28;20139;-29
2021/12/18 12:14:08;;;;;;;3.33;1.83;;;;;;;14.28;34.26;97933.47;5016329;28;20116;-29
2021/12/18 12:16:45;;;;;;;3.63;2.10;;;;;;;14.17;34.60;97936.38;5016120;28;20392;-29
2021/12/18 12:19:21;;;;;;;2.40;1.70;;;;;;;14.16;34.52;97936.78;5015946;28;20084;-29
2021/12/18 12:21:55;;;;;;;3.78;2.17;;;;;;;14.27;34.93;97951.03;5016041;28;20060;-29
2021/12/18 12:24:29;;;;;;;3.65;1.70;;;;;;;14.38;35.28;97937.97;5014876;28;20053;-29